Time;durP1;ratioP1;P1;durP2;ratioP2;P2;SDS_P1;SDS_P2;PMS_P1;PMS_P2;Temp;Humidity;BMP_temperature;BMP_pressure;BME280_temperature;BME280_humidity;BME280_pressure;Samples;Min_cycle;Max_cycle;Signal;HPM_P1;HPM_P2
2022/08/19 00:01:41;;;;;;;3.72;2.50;;;15.40;99.90;;;;;;5012872;28;20458;-71
2022/08/19 00:04:11;;;;;;;3.60;2.72;;;15.50;99.90;;;;;;5012899;28;20072;-71
2022/08/19 00:06:41;;;;;;;3.25;2.53;;;15.50;99.90;;;;;;5012880;28;20493;-71
2022/08/19 00:09:10;;;;;;;3.30;2.40;;;15.50;99.90;;;;;;5013005;28;20050;-71
2022/08/19 00:11:37;;;;;;;2.40;1.60;;;15.70;99.90;;;;;;5012759;28;20033;-71
2022/08/19 00:14:04;;;;;;;2.30;1.60;;;15.60;99.90;;;;;;5012181;28;20427;-71
2022/08/19 00:16:30;;;;;;;2.60;1.98;;;15.60;99.90;;;;;;5013237;28;20053;-72
2022/08/19 00:18:56;;;;;;;4.47;2.70;;;15.60;99.90;;;;;;5012622;28;20042;-72
2022/08/19 00:21:24;;;;;;;6.45;3.80;;;15.70;99.90;;;;;;4973254;28;1142136;-72
2022/08/19 00:23:50;;;;;;;5.28;3.92;;;15.70;99.90;;;;;;5013840;28;20045;-71
2022/08/19 00:26:16;;;;;;;5.20;4.00;;;15.80;99.90;;;;;;5013361;28;20478;-72
2022/08/19 00:28:41;;;;;;;4.93;3.78;;;15.90;99.90;;;;;;5013543;28;20046;-71
2022/08/19 00:31:08;;;;;;;5.60;3.00;;;15.90;99.90;;;;;;5012434;28;20052;-71
2022/08/19 00:33:34;;;;;;;4.60;3.22;;;16.00;99.90;;;;;;5013649;28;20049;-71
2022/08/19 00:36:04;;;;;;;4.13;3.10;;;15.90;99.90;;;;;;4996316;28;20092;-72
2022/08/19 00:38:30;;;;;;;4.22;3.30;;;15.90;99.90;;;;;;5013583;28;20379;-72
2022/08/19 00:40:56;;;;;;;4.05;3.05;;;15.80;99.90;;;;;;5013216;28;20049;-71
2022/08/19 00:43:24;;;;;;;6.10;4.00;;;15.80;99.90;;;;;;5013441;28;20486;-72
2022/08/19 00:45:49;;;;;;;4.63;3.70;;;15.80;99.90;;;;;;5013139;28;20076;-72
2022/08/19 00:48:16;;;;;;;5.35;4.25;;;15.80;99.90;;;;;;5013542;28;20121;-71
2022/08/19 00:50:44;;;;;;;6.30;4.90;;;15.80;99.90;;;;;;5013326;28;20455;-71
2022/08/19 00:53:11;;;;;;;6.50;4.55;;;15.90;99.90;;;;;;5013388;28;20042;-72
2022/08/19 00:55:39;;;;;;;7.63;5.05;;;15.90;99.90;;;;;;5013259;28;20085;-71
2022/08/19 00:58:12;;;;;;;5.75;5.03;;;15.90;99.90;;;;;;5013905;28;20352;-72
2022/08/19 01:00:38;;;;;;;6.00;4.97;;;15.90;99.90;;;;;;5013242;28;20046;-71
2022/08/19 01:03:07;;;;;;;5.55;4.50;;;15.90;99.90;;;;;;5013196;28;20092;-71
2022/08/19 01:05:34;;;;;;;6.00;4.20;;;15.90;99.90;;;;;;5012498;28;20096;-71
2022/08/19 01:08:04;;;;;;;5.88;4.72;;;15.80;99.90;;;;;;5013808;28;20053;-71
2022/08/19 01:10:33;;;;;;;6.18;4.88;;;15.90;99.90;;;;;;5014084;28;20078;-71
2022/08/19 01:13:00;;;;;;;5.40;4.28;;;15.80;99.90;;;;;;5013721;28;20359;-72
2022/08/19 01:15:31;;;;;;;5.43;4.45;;;15.80;99.90;;;;;;5013194;28;20037;-71
2022/08/19 01:18:01;;;;;;;6.20;4.57;;;15.90;99.90;;;;;;5013303;28;20096;-71
2022/08/19 01:20:27;;;;;;;7.13;4.72;;;16.00;99.90;;;;;;5012780;28;20491;-72
2022/08/19 01:22:56;;;;;;;6.00;4.78;;;15.90;99.90;;;;;;5013118;28;20124;-71
2022/08/19 01:25:29;;;;;;;5.80;4.60;;;15.90;99.90;;;;;;5012974;28;20038;-72
2022/08/19 01:27:55;;;;;;;6.13;4.88;;;16.00;99.90;;;;;;5012980;28;20050;-72
2022/08/19 01:30:32;;;;;;;6.03;4.53;;;16.00;99.90;;;;;;5013085;28;20084;-72
2022/08/19 01:32:59;;;;;;;6.07;4.40;;;16.00;99.90;;;;;;5013266;28;20037;-71
2022/08/19 01:35:30;;;;;;;6.55;3.90;;;15.90;99.90;;;;;;5013774;28;20184;-71
2022/08/19 01:37:59;;;;;;;5.53;4.03;;;15.90;99.90;;;;;;5013386;28;20042;-71
2022/08/19 01:40:30;;;;;;;6.55;3.38;;;15.90;99.90;;;;;;5012904;28;20034;-72
2022/08/19 01:42:57;;;;;;;6.63;3.03;;;15.90;99.90;;;;;;5013007;28;20135;-71
2022/08/19 01:45:25;;;;;;;3.70;2.67;;;15.80;99.90;;;;;;5012827;28;20413;-72
2022/08/19 01:47:53;;;;;;;3.83;2.78;;;15.80;99.90;;;;;;5012843;28;20048;-71
2022/08/19 01:50:18;;;;;;;3.70;2.72;;;15.80;99.90;;;;;;5012735;28;20057;-72
2022/08/19 01:52:44;;;;;;;4.28;3.13;;;15.70;99.90;;;;;;5016016;28;20410;-72
2022/08/19 01:55:16;;;;;;;4.10;2.92;;;15.70;99.90;;;;;;5016096;28;20371;-72
2022/08/19 01:57:47;;;;;;;4.32;3.40;;;15.70;99.90;;;;;;5016027;28;20471;-72
2022/08/19 02:00:15;;;;;;;4.65;3.40;;;15.70;99.90;;;;;;5016500;28;20128;-72
2022/08/19 02:02:42;;;;;;;5.07;3.40;;;15.60;99.90;;;;;;5016227;28;20041;-72
2022/08/19 02:05:08;;;;;;;5.45;4.40;;;15.60;99.90;;;;;;5016232;28;20434;-71
2022/08/19 02:07:35;;;;;;;6.60;4.18;;;15.50;99.90;;;;;;5016162;28;20045;-71
2022/08/19 02:10:04;;;;;;;6.82;4.60;;;15.40;99.90;;;;;;5015980;28;20045;-72
2022/08/19 02:12:30;;;;;;;6.45;4.38;;;15.30;99.90;;;;;;5016375;28;20400;-71
2022/08/19 02:14:55;;;;;;;6.13;4.25;;;15.20;99.90;;;;;;5016240;28;20077;-71
2022/08/19 02:17:21;;;;;;;5.85;3.60;;;15.20;99.90;;;;;;5015745;28;20432;-71
2022/08/19 02:19:47;;;;;;;4.63;3.53;;;15.20;99.90;;;;;;5015043;28;20439;-71
2022/08/19 02:22:13;;;;;;;3.88;2.63;;;15.20;99.90;;;;;;5015906;28;20045;-72
2022/08/19 02:24:38;;;;;;;5.05;3.55;;;15.10;99.90;;;;;;5015023;28;20100;-72
2022/08/19 02:27:05;;;;;;;5.68;3.60;;;15.10;99.90;;;;;;5015595;28;20049;-71
2022/08/19 02:29:31;;;;;;;5.28;3.85;;;15.00;99.90;;;;;;5015562;28;20052;-71
2022/08/19 02:31:57;;;;;;;5.95;4.70;;;14.90;99.90;;;;;;5016131;28;20128;-72
2022/08/19 02:34:24;;;;;;;6.88;4.03;;;14.90;99.90;;;;;;5015579;28;20084;-72
2022/08/19 02:36:51;;;;;;;7.10;5.43;;;14.80;99.90;;;;;;5014671;28;20049;-72
2022/08/19 02:39:17;;;;;;;5.35;3.83;;;14.80;99.90;;;;;;5015509;28;20061;-71
2022/08/19 02:41:43;;;;;;;20.40;4.38;;;14.80;99.90;;;;;;5016163;28;20060;-71
2022/08/19 02:44:08;;;;;;;31.95;5.93;;;14.80;99.90;;;;;;5014970;28;20471;-72
2022/08/19 02:46:36;;;;;;;24.95;4.68;;;14.80;99.90;;;;;;5015530;28;20046;-72
2022/08/19 02:49:06;;;;;;;75.90;6.50;;;14.70;99.90;;;;;;5015529;28;20136;-72
2022/08/19 02:51:40;;;;;;;85.20;7.75;;;14.60;99.90;;;;;;5016163;28;20109;-72
2022/08/19 02:54:07;;;;;;;20.27;5.07;;;14.50;99.90;;;;;;5014951;28;20049;-72
2022/08/19 02:56:38;;;;;;;7.03;4.32;;;14.40;99.90;;;;;;5015470;28;20065;-71
2022/08/19 02:59:11;;;;;;;12.75;4.82;;;14.40;99.90;;;;;;5014494;28;20081;-72
2022/08/19 03:01:39;;;;;;;6.63;4.00;;;14.40;99.90;;;;;;5015603;28;20045;-71
2022/08/19 03:04:06;;;;;;;32.30;5.85;;;14.50;99.90;;;;;;5014645;28;20443;-72
2022/08/19 03:06:35;;;;;;;41.53;7.18;;;14.50;99.90;;;;;;5015143;28;20121;-72
2022/08/19 03:09:01;;;;;;;49.30;6.70;;;14.50;99.90;;;;;;5015020;28;20038;-72
2022/08/19 03:11:30;;;;;;;29.17;5.95;;;14.40;99.90;;;;;;5014860;28;20415;-72
2022/08/19 03:13:56;;;;;;;23.92;6.03;;;14.30;99.90;;;;;;5014792;28;20421;-72
2022/08/19 03:16:24;;;;;;;17.98;4.15;;;14.30;99.90;;;;;;5014864;28;20041;-72
2022/08/19 03:18:52;;;;;;;11.55;4.15;;;14.30;99.90;;;;;;5014661;28;20065;-72
2022/08/19 03:21:22;;;;;;;17.17;2.70;;;14.30;99.90;;;;;;5014524;28;20125;-72
2022/08/19 03:23:48;;;;;;;4.07;2.30;;;14.40;99.90;;;;;;5014315;28;20045;-72
2022/08/19 03:26:17;;;;;;;22.02;4.93;;;14.50;99.90;;;;;;5014649;28;20048;-72
2022/08/19 03:28:44;;;;;;;26.30;4.70;;;14.50;99.90;;;;;;5014344;28;20479;-72
2022/08/19 03:31:13;;;;;;;12.77;4.50;;;14.30;99.90;;;;;;5013548;28;20099;-71
2022/08/19 03:33:40;;;;;;;4.72;2.80;;;14.30;99.90;;;;;;5012975;28;20581;-71
2022/08/19 03:36:09;;;;;;;5.60;2.70;;;14.20;99.90;;;;;;5014149;28;20053;-72
2022/08/19 03:38:38;;;;;;;4.72;3.08;;;14.20;99.90;;;;;;5013187;28;20085;-71
2022/08/19 03:41:11;;;;;;;4.30;2.70;;;14.10;99.90;;;;;;5013359;28;20034;-72
2022/08/19 03:43:38;;;;;;;4.45;2.80;;;14.10;99.90;;;;;;5015142;28;20050;-71
2022/08/19 03:46:15;;;;;;;5.10;3.25;;;14.20;99.90;;;;;;5014208;28;20097;-71
2022/08/19 03:48:42;;;;;;;4.70;2.90;;;14.20;99.90;;;;;;5015027;28;20088;-70
2022/08/19 03:51:17;;;;;;;4.85;3.85;;;14.10;99.90;;;;;;5014030;28;20431;-71
2022/08/19 03:53:43;;;;;;;5.55;3.97;;;14.10;99.90;;;;;;5014394;28;20482;-71
2022/08/19 03:56:10;;;;;;;4.10;3.30;;;14.10;99.90;;;;;;5014264;28;20128;-71
2022/08/19 03:58:37;;;;;;;6.95;3.83;;;14.10;99.90;;;;;;5014140;28;20383;-71
2022/08/19 04:01:15;;;;;;;6.15;3.88;;;14.10;99.90;;;;;;5013920;28;20088;-71
2022/08/19 04:03:40;;;;;;;5.95;4.60;;;14.10;99.90;;;;;;5013828;28;20133;-70
2022/08/19 04:06:23;;;;;;;9.15;5.70;;;14.10;99.90;;;;;;5012871;28;20064;-71
2022/08/19 04:08:51;;;;;;;19.48;5.78;;;14.10;99.90;;;;;;5014749;28;20045;-71
2022/08/19 04:11:25;;;;;;;49.83;6.40;;;14.10;99.90;;;;;;5014384;28;20046;-70
2022/08/19 04:13:52;;;;;;;6.20;5.00;;;14.00;99.90;;;;;;5013587;28;20369;-71
2022/08/19 04:16:20;;;;;;;6.78;4.45;;;13.90;99.90;;;;;;5013656;28;20049;-71
2022/08/19 04:18:47;;;;;;;7.63;4.90;;;13.80;99.90;;;;;;5013651;28;20363;-71
2022/08/19 04:21:23;;;;;;;5.22;3.55;;;13.70;99.90;;;;;;5013945;28;20049;-71
2022/08/19 04:23:49;;;;;;;4.82;3.20;;;13.70;99.90;;;;;;5014123;28;20085;-71
2022/08/19 04:26:21;;;;;;;6.53;3.35;;;13.60;99.90;;;;;;5012866;28;20378;-72
2022/08/19 04:28:47;;;;;;;6.60;4.00;;;13.60;99.90;;;;;;5014148;28;20461;-71
2022/08/19 04:31:20;;;;;;;7.00;4.70;;;13.60;99.90;;;;;;5013425;28;20180;-71
2022/08/19 04:33:45;;;;;;;5.50;4.18;;;13.60;99.90;;;;;;5013344;28;20038;-72
2022/08/19 04:36:21;;;;;;;8.38;4.78;;;13.60;99.90;;;;;;5013335;28;20040;-72
2022/08/19 04:38:48;;;;;;;9.23;5.28;;;13.70;99.90;;;;;;5013996;28;20121;-72
2022/08/19 04:43:59;;;;;;;28.73;6.40;;;13.60;99.90;;;;;;5013752;28;20196;-72
2022/08/19 04:46:24;;;;;;;23.05;6.55;;;13.60;99.90;;;;;;5013429;28;20487;-72
2022/08/19 04:48:50;;;;;;;10.98;5.10;;;13.70;99.90;;;;;;5012312;28;20053;-71
2022/08/19 04:51:16;;;;;;;6.18;4.05;;;13.70;99.90;;;;;;5014155;28;20124;-72
2022/08/19 04:53:42;;;;;;;6.50;4.72;;;13.70;99.90;;;;;;5012489;28;20054;-71
2022/08/19 04:56:14;;;;;;;7.30;4.47;;;13.80;99.90;;;;;;5013344;28;20044;-71
2022/08/19 04:58:42;;;;;;;5.68;4.25;;;13.80;99.90;;;;;;5013411;28;20100;-71
2022/08/19 05:01:11;;;;;;;6.55;4.95;;;13.90;99.90;;;;;;5013253;28;20050;-71
2022/08/19 05:03:38;;;;;;;8.57;5.45;;;13.90;99.90;;;;;;5013296;28;20034;-71
2022/08/19 05:06:13;;;;;;;8.18;5.93;;;14.00;99.90;;;;;;5013587;28;20458;-71
2022/08/19 05:08:43;;;;;;;8.40;6.13;;;14.10;99.90;;;;;;5013358;28;20038;-71
2022/08/19 05:11:16;;;;;;;9.70;6.40;;;14.10;99.90;;;;;;5012343;28;20101;-70
2022/08/19 05:13:43;;;;;;;10.68;6.90;;;14.20;99.90;;;;;;5013245;28;20084;-71
2022/08/19 05:16:12;;;;;;;10.38;6.60;;;14.20;99.90;;;;;;5013117;28;20044;-71
2022/08/19 05:24:10;;;;;;;13.27;6.90;;;14.40;99.90;;;;;;5012973;28;20137;-71
2022/08/19 05:26:37;;;;;;;10.02;7.10;;;14.50;99.90;;;;;;5014121;28;20048;-71
2022/08/19 05:29:03;;;;;;;9.32;6.50;;;14.50;99.90;;;;;;5016600;28;20084;-71
2022/08/19 05:31:30;;;;;;;9.88;6.75;;;14.60;99.90;;;;;;5016750;28;20463;-71
2022/08/19 05:33:58;;;;;;;9.75;6.75;;;14.60;99.90;;;;;;5016946;28;20041;-71
2022/08/19 05:36:25;;;;;;;10.50;6.65;;;14.70;99.90;;;;;;5016722;28;20487;-71
2022/08/19 05:38:52;;;;;;;11.13;7.82;;;14.70;99.90;;;;;;5016692;28;20049;-71
2022/08/19 05:41:18;;;;;;;11.13;7.47;;;14.90;99.90;;;;;;5015523;28;20157;-71
2022/08/19 05:43:44;;;;;;;12.18;7.90;;;15.00;99.90;;;;;;5016862;28;20061;-71
2022/08/19 05:46:19;;;;;;;12.60;7.97;;;15.20;99.90;;;;;;5016500;28;20058;-72
2022/08/19 05:48:45;;;;;;;11.80;7.75;;;15.30;99.90;;;;;;5017401;28;20073;-72
2022/08/19 05:51:11;;;;;;;10.93;7.75;;;15.50;99.90;;;;;;5016601;28;20052;-72
2022/08/19 05:53:37;;;;;;;10.52;7.35;;;15.70;99.90;;;;;;5016198;28;20486;-71
2022/08/19 05:56:08;;;;;;;12.43;7.50;;;15.80;99.90;;;;;;5015128;28;20099;-72
2022/08/19 05:58:34;;;;;;;12.43;7.47;;;16.00;99.90;;;;;;5016293;28;20053;-72
2022/08/19 06:01:05;;;;;;;12.82;7.88;;;16.10;99.90;;;;;;5016257;28;20034;-72
2022/08/19 06:03:33;;;;;;;12.50;7.97;;;16.30;99.90;;;;;;5016876;28;20046;-72
2022/08/19 06:05:59;;;;;;;11.40;7.93;;;16.30;99.90;;;;;;5016745;28;20037;-71
2022/08/19 06:08:26;;;;;;;9.90;7.18;;;16.40;99.90;;;;;;5016017;28;20042;-71
2022/08/19 06:10:52;;;;;;;9.73;6.75;;;16.50;99.90;;;;;;5016095;28;20041;-71
2022/08/19 06:13:19;;;;;;;9.02;6.47;;;16.50;99.90;;;;;;5016124;28;20121;-66
2022/08/19 06:15:46;;;;;;;11.25;7.22;;;16.60;99.90;;;;;;5016028;28;20135;-65
2022/08/19 06:18:13;;;;;;;10.80;6.88;;;16.70;99.90;;;;;;5015960;28;20049;-65
2022/08/19 06:20:40;;;;;;;10.65;7.53;;;16.70;99.90;;;;;;5016029;28;20050;-65
2022/08/19 06:23:06;;;;;;;12.60;7.70;;;16.80;99.90;;;;;;5015775;28;20045;-65
2022/08/19 06:25:32;;;;;;;9.80;7.20;;;16.90;99.90;;;;;;5015640;28;20437;-66
2022/08/19 06:27:57;;;;;;;11.63;7.78;;;17.00;99.90;;;;;;5015739;28;20080;-66
2022/08/19 06:30:23;;;;;;;10.43;7.20;;;17.10;99.90;;;;;;5015643;28;20121;-65
2022/08/19 06:32:49;;;;;;;11.52;7.55;;;17.20;99.90;;;;;;5015579;28;20128;-66
2022/08/19 06:35:16;;;;;;;11.80;7.50;;;17.30;99.90;;;;;;5015798;28;20053;-66
2022/08/19 06:37:42;;;;;;;9.85;7.28;;;17.40;99.90;;;;;;5015495;28;20081;-65
2022/08/19 06:40:10;;;;;;;10.48;7.40;;;17.50;99.90;;;;;;5015752;28;20414;-65
2022/08/19 06:42:38;;;;;;;10.57;7.22;;;17.60;99.90;;;;;;5015407;28;20041;-65
2022/08/19 06:45:05;;;;;;;9.43;7.22;;;17.80;99.90;;;;;;5015406;28;20121;-65
2022/08/19 06:47:32;;;;;;;9.57;6.80;;;17.90;99.90;;;;;;5016204;28;20072;-65
2022/08/19 06:50:03;;;;;;;8.82;6.72;;;18.00;99.90;;;;;;5015360;28;20053;-65
2022/08/19 06:52:34;;;;;;;8.68;6.53;;;18.10;99.90;;;;;;5014641;28;20050;-65
2022/08/19 06:55:01;;;;;;;9.10;6.55;;;18.30;99.90;;;;;;5015291;28;20057;-65
2022/08/19 06:57:32;;;;;;;8.15;6.38;;;18.30;99.90;;;;;;5015247;28;20046;-65
2022/08/19 06:59:59;;;;;;;9.15;6.35;;;18.50;99.90;;;;;;5015672;28;20046;-65
2022/08/19 07:02:26;;;;;;;9.90;6.47;;;18.60;99.90;;;;;;5015226;28;20054;-65
2022/08/19 07:04:52;;;;;;;9.13;7.07;;;18.70;99.90;;;;;;5015323;28;20471;-65
2022/08/19 07:07:19;;;;;;;9.75;6.85;;;18.90;99.90;;;;;;5015530;28;20167;-65
2022/08/19 07:09:45;;;;;;;9.20;7.63;;;19.00;99.90;;;;;;5015024;28;20129;-65
2022/08/19 07:12:14;;;;;;;9.82;7.22;;;19.10;99.90;;;;;;5014954;28;20077;-65
2022/08/19 07:14:41;;;;;;;10.48;7.70;;;19.20;99.90;;;;;;5014196;28;20363;-66
2022/08/19 07:17:09;;;;;;;8.45;7.10;;;19.20;99.90;;;;;;5013389;28;20108;-67
2022/08/19 07:19:36;;;;;;;9.98;7.00;;;19.20;99.90;;;;;;5014448;28;20439;-66
2022/08/19 07:22:05;;;;;;;10.90;6.75;;;19.30;99.90;;;;;;5014061;28;20316;-67
2022/08/19 07:24:32;;;;;;;10.00;6.72;;;19.30;99.90;;;;;;5014752;28;20045;-67
2022/08/19 07:27:01;;;;;;;8.40;6.63;;;19.40;99.90;;;;;;5014499;28;20100;-67
2022/08/19 07:29:29;;;;;;;11.05;7.13;;;19.40;99.90;;;;;;5015280;28;20045;-67
2022/08/19 07:31:56;;;;;;;8.25;6.78;;;19.40;99.90;;;;;;5015078;28;20034;-66
2022/08/19 07:34:23;;;;;;;9.25;6.60;;;19.50;99.90;;;;;;5014426;28;20129;-66
2022/08/19 07:36:50;;;;;;;8.93;6.78;;;19.50;99.90;;;;;;5014882;28;20052;-67
2022/08/19 07:39:27;;;;;;;7.63;6.10;;;19.50;99.90;;;;;;5013247;28;20185;-66
2022/08/19 07:41:54;;;;;;;7.30;6.47;;;19.50;99.90;;;;;;5014916;28;20045;-66
2022/08/19 07:44:20;;;;;;;8.90;7.00;;;19.50;99.90;;;;;;5014837;28;20048;-66
2022/08/19 07:46:51;;;;;;;9.50;6.65;;;19.50;99.90;;;;;;5014187;28;20046;-66
2022/08/19 07:49:18;;;;;;;9.30;7.00;;;19.60;99.90;;;;;;5013838;28;20131;-66
2022/08/19 07:51:53;;;;;;;8.98;6.95;;;19.60;99.90;;;;;;5014316;28;20052;-67
2022/08/19 07:54:21;;;;;;;9.27;6.90;;;19.70;99.90;;;;;;5014716;28;20128;-67
2022/08/19 07:56:47;;;;;;;10.73;7.28;;;19.80;99.90;;;;;;5012796;28;20084;-67
2022/08/19 07:59:13;;;;;;;8.60;7.07;;;19.90;99.90;;;;;;5013980;28;20082;-68
2022/08/19 08:01:39;;;;;;;11.00;7.15;;;20.00;99.90;;;;;;5013815;28;20367;-66
2022/08/19 08:09:39;;;;;;;10.57;6.63;;;20.40;99.90;;;;;;5014019;28;20050;-66
2022/08/19 08:12:14;;;;;;;8.70;6.30;;;20.60;99.90;;;;;;5013840;28;20085;-66
2022/08/19 08:14:47;;;;;;;9.55;6.63;;;20.60;99.90;;;;;;5014114;28;20088;-66
2022/08/19 08:17:15;;;;;;;8.02;6.65;;;20.70;99.90;;;;;;5014311;28;20046;-66
2022/08/19 08:19:43;;;;;;;7.78;6.45;;;20.80;99.90;;;;;;5013465;28;20364;-66
2022/08/19 08:23:22;;;;;;;8.88;6.65;;;20.90;99.90;;;;;;5014131;28;20068;-65
2022/08/19 08:25:14;;;;;;;9.55;6.95;;;21.00;99.90;;;;;;5013753;28;20056;-66
2022/08/19 08:27:43;;;;;;;9.20;7.45;;;21.10;99.90;;;;;;5013727;28;20048;-66
2022/08/19 08:30:11;;;;;;;10.48;6.65;;;21.20;99.90;;;;;;5012545;28;20049;-65
2022/08/19 08:32:39;;;;;;;9.38;6.78;;;21.30;99.90;;;;;;5013790;28;20042;-66
2022/08/19 08:35:09;;;;;;;9.07;7.13;;;21.40;99.90;;;;;;5013538;28;20080;-66
2022/08/19 08:37:35;;;;;;;8.43;7.25;;;21.50;99.90;;;;;;5013486;28;20038;-65
2022/08/19 08:40:13;;;;;;;8.95;6.78;;;21.60;99.90;;;;;;5013481;28;20125;-66
2022/08/19 08:42:51;;;;;;;9.65;7.07;;;21.70;99.90;;;;;;5014239;28;20382;-66
2022/08/19 08:45:18;;;;;;;8.20;6.55;;;21.80;99.90;;;;;;5013767;28;20374;-66
2022/08/19 08:47:47;;;;;;;8.02;7.22;;;21.80;99.90;;;;;;5013656;28;20041;-66
2022/08/19 08:50:25;;;;;;;10.18;6.60;;;21.90;99.90;;;;;;5013239;28;20522;-66
2022/08/19 08:52:55;;;;;;;9.52;7.00;;;22.10;99.90;;;;;;5013406;28;20049;-66
2022/08/19 08:55:25;;;;;;;6.85;6.00;;;22.10;99.90;;;;;;5013986;28;20363;-66
2022/08/19 08:58:07;;;;;;;7.18;6.28;;;22.20;99.90;;;;;;5013220;28;20129;-66
2022/08/19 09:00:38;;;;;;;8.18;6.07;;;22.30;99.90;;;;;;5013114;28;20049;-66
2022/08/19 09:03:16;;;;;;;7.78;5.70;;;22.40;99.90;;;;;;5017339;28;20092;-66
2022/08/19 09:05:51;;;;;;;6.95;5.93;;;22.50;99.90;;;;;;5016422;28;20104;-66
2022/08/19 09:08:35;;;;;;;5.68;5.00;;;22.60;99.90;;;;;;5017244;28;20081;-66
2022/08/19 09:11:07;;;;;;;7.30;5.60;;;22.70;99.90;;;;;;5017269;28;20038;-65
2022/08/19 09:13:44;;;;;;;6.60;5.90;;;22.80;99.90;;;;;;5017574;28;20056;-66
2022/08/19 09:16:14;;;;;;;9.55;6.40;;;22.80;99.90;;;;;;5017750;28;20378;-66
2022/08/19 09:18:44;;;;;;;8.07;6.43;;;22.80;99.90;;;;;;5017442;28;20038;-66
2022/08/19 09:21:10;;;;;;;7.90;6.78;;;22.90;99.90;;;;;;5016420;28;20116;-66
2022/08/19 09:23:36;;;;;;;8.18;7.03;;;23.00;99.90;;;;;;5016986;28;20475;-66
2022/08/19 09:26:08;;;;;;;7.72;6.65;;;23.10;99.90;;;;;;5017584;28;20068;-66
2022/08/19 09:28:34;;;;;;;8.50;6.60;;;23.10;99.90;;;;;;5016418;28;20061;-66
2022/08/19 09:31:00;;;;;;;7.65;6.80;;;23.10;99.90;;;;;;5016756;28;20042;-66
2022/08/19 09:33:26;;;;;;;8.18;7.32;;;23.20;99.90;;;;;;5016608;28;20038;-68
2022/08/19 09:36:08;;;;;;;7.55;6.70;;;23.30;99.90;;;;;;5016812;28;20451;-69
2022/08/19 09:38:35;;;;;;;9.20;7.05;;;23.40;99.90;;;;;;5017172;28;20049;-66
2022/08/19 09:41:13;;;;;;;7.70;6.70;;;23.40;99.90;;;;;;5016542;28;20041;-66
2022/08/19 09:43:40;;;;;;;8.25;7.30;;;23.50;99.90;;;;;;5016220;28;20042;-67
2022/08/19 09:46:09;;;;;;;9.00;6.40;;;23.60;99.90;;;;;;5016156;28;20495;-65
2022/08/19 09:48:38;;;;;;;5.70;4.07;;;23.70;99.90;;;;;;5016361;28;20445;-65
2022/08/19 09:51:15;;;;;;;4.78;3.83;;;23.80;99.90;;;;;;5015726;28;20395;-65
2022/08/19 09:53:42;;;;;;;5.90;4.50;;;23.80;99.90;;;;;;5016373;28;20049;-66
2022/08/19 09:56:09;;;;;;;6.10;5.35;;;23.90;99.90;;;;;;5015246;28;20375;-67
2022/08/19 09:58:36;;;;;;;6.88;5.50;;;23.90;99.90;;;;;;5015097;28;20045;-67
2022/08/19 10:01:04;;;;;;;7.28;5.63;;;23.90;99.90;;;;;;5016406;28;20061;-66
2022/08/19 10:03:31;;;;;;;8.95;5.32;;;23.90;99.90;;;;;;5016296;28;20044;-66
2022/08/19 10:05:59;;;;;;;5.50;4.40;;;24.00;99.90;;;;;;5015861;28;20050;-67
2022/08/19 10:08:29;;;;;;;4.00;3.50;;;24.00;99.90;;;;;;5016741;28;20041;-67
2022/08/19 10:10:55;;;;;;;5.05;4.15;;;24.10;99.90;;;;;;5015034;28;20046;-67
2022/08/19 10:13:25;;;;;;;5.68;4.60;;;24.10;99.90;;;;;;5015661;28;20132;-67
2022/08/19 10:15:53;;;;;;;4.28;3.60;;;24.10;99.90;;;;;;4999466;28;20121;-68
2022/08/19 10:18:20;;;;;;;5.47;4.35;;;24.10;99.90;;;;;;5015962;28;20041;-66
2022/08/19 10:20:48;;;;;;;5.60;4.13;;;24.10;99.90;;;;;;5015346;28;20418;-67
2022/08/19 10:23:15;;;;;;;5.68;4.50;;;24.10;99.90;;;;;;5016293;28;20355;-67
2022/08/19 10:25:41;;;;;;;5.80;4.95;;;24.10;99.90;;;;;;5015609;28;20100;-66
2022/08/19 10:28:07;;;;;;;5.57;4.70;;;24.10;99.90;;;;;;5015050;28;20123;-66
2022/08/19 10:30:35;;;;;;;6.00;4.80;;;24.10;99.90;;;;;;5015743;28;20045;-66
2022/08/19 10:33:01;;;;;;;5.45;4.80;;;24.10;99.90;;;;;;5014402;28;20042;-66
2022/08/19 10:35:29;;;;;;;5.50;4.45;;;24.10;99.90;;;;;;5015577;28;20188;-66
2022/08/19 10:37:58;;;;;;;5.38;4.70;;;24.20;99.90;;;;;;5014426;28;20139;-66
2022/08/19 10:40:26;;;;;;;5.95;4.80;;;24.20;99.90;;;;;;5015454;28;20089;-65
2022/08/19 10:42:52;;;;;;;5.25;4.50;;;24.10;99.90;;;;;;5015346;28;20137;-65
2022/08/19 10:45:18;;;;;;;5.22;4.28;;;24.10;99.90;;;;;;5015503;28;20037;-65
2022/08/19 10:47:44;;;;;;;5.85;4.78;;;24.20;99.90;;;;;;5015298;28;20121;-65
2022/08/19 10:52:54;;;;;;;5.97;5.38;;;24.40;99.90;;;;;;5015829;28;20382;-65
2022/08/19 10:58:12;;;;;;;7.03;5.15;;;24.60;99.90;;;;;;5015575;28;20057;-65
2022/08/19 11:00:40;;;;;;;6.70;5.80;;;24.60;99.90;;;;;;5014962;28;20378;-66
2022/08/19 11:03:05;;;;;;;6.05;5.15;;;24.70;99.90;;;;;;5014735;28;20475;-66
2022/08/19 11:05:31;;;;;;;6.93;5.65;;;24.70;99.90;;;;;;5015018;28;20126;-66
2022/08/19 11:07:57;;;;;;;5.43;4.55;;;24.80;99.90;;;;;;5014996;28;20375;-66
2022/08/19 11:10:23;;;;;;;6.93;5.30;;;24.90;99.90;;;;;;5014785;28;20046;-66
2022/08/19 11:12:53;;;;;;;6.93;5.68;;;25.00;99.90;;;;;;5015122;28;20411;-66
2022/08/19 11:15:19;;;;;;;6.53;5.40;;;24.90;99.90;;;;;;5014671;28;20048;-67
2022/08/19 11:17:45;;;;;;;6.22;5.03;;;24.80;99.90;;;;;;5014749;28;20129;-68
2022/08/19 11:20:13;;;;;;;7.20;5.30;;;24.70;99.90;;;;;;5013259;28;20072;-67
2022/08/19 11:22:40;;;;;;;8.70;6.05;;;24.80;99.90;;;;;;5014632;28;20049;-67
2022/08/19 11:25:08;;;;;;;5.00;4.50;;;24.90;99.90;;;;;;5012623;28;20057;-66
2022/08/19 11:27:36;;;;;;;6.88;5.80;;;25.00;99.90;;;;;;5014948;28;20101;-65
2022/08/19 11:30:03;;;;;;;6.25;5.20;;;25.10;99.90;;;;;;5014398;28;20056;-65
2022/08/19 11:32:29;;;;;;;5.85;5.03;;;25.20;99.90;;;;;;5013487;28;20045;-65
2022/08/19 11:34:54;;;;;;;6.35;5.15;;;25.20;99.90;;;;;;5013287;28;20056;-66
2022/08/19 11:37:20;;;;;;;4.97;4.43;;;24.90;99.90;;;;;;5014982;28;20362;-65
2022/08/19 11:39:46;;;;;;;4.97;4.47;;;24.80;99.90;;;;;;5014271;28;20133;-65
2022/08/19 11:44:56;;;;;;;6.25;5.20;;;24.90;99.90;;;;;;5015004;28;20387;-65
2022/08/19 11:47:22;;;;;;;5.97;5.15;;;25.10;99.90;;;;;;5014187;28;20041;-66
2022/08/19 11:49:48;;;;;;;6.90;5.05;;;25.20;99.90;;;;;;5014031;28;20096;-66
2022/08/19 11:52:14;;;;;;;6.70;5.70;;;25.20;99.90;;;;;;5014186;28;20076;-66
2022/08/19 11:54:39;;;;;;;5.85;4.80;;;25.30;99.90;;;;;;5012990;28;20149;-66
2022/08/19 11:57:05;;;;;;;6.32;5.72;;;25.30;99.90;;;;;;5012886;28;20037;-66
2022/08/19 11:59:31;;;;;;;5.28;4.75;;;25.40;99.90;;;;;;5014012;28;20544;-66
2022/08/19 12:01:57;;;;;;;5.40;4.50;;;25.50;99.90;;;;;;5012693;28;20095;-66
2022/08/19 12:04:23;;;;;;;5.72;4.95;;;25.40;99.90;;;;;;5013856;28;20056;-65
2022/08/19 12:06:49;;;;;;;6.47;5.25;;;25.30;99.90;;;;;;5014479;28;20370;-65
2022/08/19 12:09:17;;;;;;;5.75;5.15;;;25.00;99.90;;;;;;5014219;28;20056;-65
2022/08/19 12:11:43;;;;;;;6.90;4.93;;;24.90;99.90;;;;;;5013644;28;20054;-65
2022/08/19 12:14:13;;;;;;;5.97;5.38;;;24.70;99.90;;;;;;5013788;28;20122;-65
2022/08/19 12:16:40;;;;;;;5.78;4.60;;;24.70;99.90;;;;;;5013817;28;20041;-65
2022/08/19 12:19:07;;;;;;;6.78;4.78;;;24.60;99.90;;;;;;5013809;28;20454;-65
2022/08/19 12:21:35;;;;;;;5.18;4.68;;;24.50;99.90;;;;;;5013575;28;20077;-66
2022/08/19 12:24:02;;;;;;;5.93;4.63;;;24.50;99.90;;;;;;5013023;28;20390;-66
2022/08/19 12:26:31;;;;;;;5.32;4.68;;;24.50;99.90;;;;;;5013646;28;20045;-66
2022/08/19 12:28:59;;;;;;;7.65;5.20;;;24.60;99.90;;;;;;5013061;28;20426;-65
2022/08/19 12:31:25;;;;;;;6.80;5.20;;;24.70;99.90;;;;;;5012019;28;20054;-67
2022/08/19 12:33:52;;;;;;;6.35;4.93;;;24.70;99.90;;;;;;5013916;28;20050;-67
2022/08/19 12:36:18;;;;;;;5.70;5.05;;;24.70;99.90;;;;;;5013373;28;20045;-67
2022/08/19 12:38:44;;;;;;;6.65;5.25;;;24.70;99.90;;;;;;5013190;28;20132;-66
2022/08/19 12:41:13;;;;;;;6.95;5.50;;;24.80;99.90;;;;;;5013237;28;20060;-66
2022/08/19 12:43:38;;;;;;;7.15;4.72;;;25.10;99.90;;;;;;5012225;28;20096;-66
2022/08/19 12:46:05;;;;;;;5.35;4.85;;;25.30;99.90;;;;;;5012677;28;20470;-66
2022/08/19 12:48:32;;;;;;;6.80;4.93;;;25.40;99.90;;;;;;5013207;28;20038;-66
2022/08/19 12:50:58;;;;;;;6.80;5.03;;;25.30;99.90;;;;;;5013755;28;20042;-67
2022/08/19 12:53:24;;;;;;;5.35;4.13;;;25.40;99.90;;;;;;5013227;28;20061;-66
2022/08/19 12:56:00;;;;;;;5.05;4.55;;;25.50;99.90;;;;;;5013802;28;20100;-65
2022/08/19 12:58:26;;;;;;;5.30;4.13;;;25.70;99.90;;;;;;5013642;28;20042;-66
2022/08/19 13:00:52;;;;;;;5.20;4.68;;;25.70;99.90;;;;;;5012003;28;20045;-65
2022/08/19 13:03:18;;;;;;;6.40;4.95;;;25.80;99.90;;;;;;5013258;28;20045;-65
2022/08/19 13:05:43;;;;;;;5.43;4.53;;;25.80;99.90;;;;;;5013133;28;20052;-65
2022/08/19 13:08:09;;;;;;;5.30;4.80;;;25.60;99.90;;;;;;5013256;28;20138;-65
2022/08/19 13:10:35;;;;;;;5.53;4.60;;;25.50;99.90;;;;;;5013247;28;20041;-65
2022/08/19 13:13:08;;;;;;;5.70;4.28;;;25.30;99.90;;;;;;5013740;28;20104;-65